createdAt,value
2023-04-11T05:35:14.419Z,23.50
2023-04-11T05:37:53.818Z,24.60
2023-04-11T05:40:21.195Z,23.53
2023-04-11T05:42:49.393Z,24.60
2023-04-11T05:45:16.719Z,24.93
2023-04-11T05:47:45.098Z,24.20
2023-04-11T05:50:16.121Z,24.30
2023-04-11T05:52:46.303Z,25.27
2023-04-11T05:55:14.137Z,24.00
2023-04-11T05:57:42.587Z,22.03
2023-04-11T06:00:14.512Z,21.10
2023-04-11T06:02:42.861Z,22.00
2023-04-11T06:05:16.114Z,22.30
2023-04-11T06:07:47.006Z,21.20
2023-04-11T06:10:15.961Z,20.40
2023-04-11T06:12:43.291Z,21.03
2023-04-11T06:15:11.999Z,20.67
2023-04-11T06:17:39.414Z,19.83
2023-04-11T06:20:08.857Z,19.73
2023-04-11T06:22:36.290Z,21.17
2023-04-11T06:25:08.969Z,20.13
2023-04-11T06:27:36.323Z,19.70
2023-04-11T06:30:03.731Z,19.73
2023-04-11T06:32:31.444Z,19.97
2023-04-11T06:34:58.767Z,19.00
2023-04-11T06:37:26.203Z,19.20
2023-04-11T06:39:53.586Z,19.77
2023-04-11T06:42:22.358Z,19.90
2023-04-11T06:44:54.247Z,19.80
2023-04-11T06:47:24.686Z,19.13
2023-04-11T06:49:51.991Z,20.00
2023-04-11T06:52:19.308Z,20.23
2023-04-11T06:54:49.733Z,20.63
2023-04-11T06:57:18.025Z,20.33
2023-04-11T06:59:49.005Z,20.53
2023-04-11T07:02:16.819Z,19.77
2023-04-11T07:04:46.858Z,19.83
2023-04-11T07:07:14.268Z,19.53
2023-04-11T07:09:41.612Z,19.00
2023-04-11T07:12:08.968Z,20.55
2023-04-11T07:14:38.170Z,18.97
2023-04-11T07:17:05.594Z,18.45
2023-04-11T07:19:32.961Z,18.70
2023-04-11T07:22:00.525Z,18.33
2023-04-11T07:24:30.604Z,18.17
2023-04-11T07:27:03.290Z,17.17
2023-04-11T07:29:30.939Z,17.50
2023-04-11T07:31:58.352Z,15.90
2023-04-11T07:34:25.842Z,15.63
2023-04-11T07:36:53.220Z,15.73
2023-04-11T07:39:20.567Z,14.77
2023-04-11T07:41:47.863Z,14.88
2023-04-11T07:44:15.128Z,13.90
2023-04-11T07:46:44.502Z,13.52
2023-04-11T07:49:11.820Z,12.75
2023-04-11T07:51:39.837Z,13.13
2023-04-11T07:54:08.701Z,12.98
2023-04-11T07:56:36.226Z,12.07
2023-04-11T07:59:04.440Z,11.23
2023-04-11T08:01:32.051Z,11.07
2023-04-11T08:03:59.881Z,11.27
2023-04-11T08:06:29.143Z,9.93
2023-04-11T08:08:58.720Z,9.90
2023-04-11T08:11:26.201Z,9.30
2023-04-11T08:13:53.574Z,9.50
2023-04-11T08:16:20.920Z,9.25
2023-04-11T08:18:48.323Z,8.57
2023-04-11T08:21:15.787Z,8.13
2023-04-11T08:23:43.075Z,8.40
2023-04-11T08:26:12.018Z,8.93
2023-04-11T08:28:42.435Z,7.65
2023-04-11T08:31:13.318Z,7.95
2023-04-11T08:33:41.635Z,7.25
2023-04-11T08:36:10.286Z,7.55
2023-04-11T08:38:38.548Z,6.50
2023-04-11T08:41:06.332Z,6.65
2023-04-11T08:43:37.227Z,5.82
2023-04-11T08:46:05.045Z,5.80
2023-04-11T08:48:32.960Z,6.00
2023-04-11T08:51:00.705Z,6.18
2023-04-11T08:53:28.261Z,5.90
2023-04-11T08:55:55.793Z,6.30
2023-04-11T08:58:23.394Z,5.50
2023-04-11T09:00:50.963Z,6.00
2023-04-11T09:03:18.588Z,5.70
2023-04-11T09:05:46.989Z,5.50
2023-04-11T09:08:15.298Z,5.55
2023-04-11T09:10:45.468Z,5.70
2023-04-11T09:13:21.381Z,5.93
2023-04-11T09:15:49.200Z,5.78
2023-04-11T09:18:33.050Z,5.35
2023-04-11T09:21:01.850Z,5.90
2023-04-11T09:23:29.312Z,5.72
2023-04-11T09:25:56.815Z,5.22
2023-04-11T09:28:24.824Z,5.57
2023-04-11T09:30:52.832Z,4.85
2023-04-11T09:33:24.204Z,4.63
2023-04-11T09:35:52.939Z,4.90
2023-04-11T09:38:33.550Z,4.40
2023-04-11T09:41:01.672Z,3.95
2023-04-11T09:43:29.101Z,4.15
2023-04-11T09:46:12.395Z,3.53
2023-04-11T09:48:46.074Z,3.70
2023-04-11T09:51:21.056Z,3.60
2023-04-11T09:53:59.859Z,3.38
2023-04-11T09:56:28.046Z,3.20
2023-04-11T09:58:56.523Z,3.63
2023-04-11T10:01:24.526Z,3.88
2023-04-11T10:03:52.841Z,4.82
2023-04-11T10:06:23.827Z,4.78
2023-04-11T10:08:51.888Z,4.93
2023-04-11T10:11:23.582Z,5.03
2023-04-11T10:13:51.634Z,5.88
2023-04-11T10:16:20.404Z,5.75
2023-04-11T10:18:53.856Z,5.55
2023-04-11T10:21:30.712Z,6.20
2023-04-11T10:24:16.374Z,6.68
2023-04-11T10:26:47.872Z,8.63
2023-04-11T10:29:33.044Z,6.60
2023-04-11T10:32:13.075Z,6.40
2023-04-11T10:34:42.000Z,6.50
2023-04-11T10:37:10.402Z,6.20
2023-04-11T10:39:52.726Z,6.53
2023-04-11T10:42:29.986Z,6.97
2023-04-11T10:45:16.262Z,6.75
2023-04-11T10:47:43.717Z,6.65
2023-04-11T10:50:26.412Z,6.68
2023-04-11T10:52:56.232Z,6.00
2023-04-11T10:55:23.966Z,6.15
2023-04-11T10:58:07.423Z,5.72
2023-04-11T11:00:49.830Z,5.70
2023-04-11T11:03:31.626Z,5.47
2023-04-11T11:05:59.109Z,5.43
2023-04-11T11:08:30.874Z,4.88
2023-04-11T11:11:01.985Z,5.00
2023-04-11T11:13:39.861Z,5.05
2023-04-11T11:16:07.984Z,5.40
2023-04-11T11:18:35.669Z,5.95
2023-04-11T11:21:03.246Z,5.70
2023-04-11T11:23:32.369Z,5.80
2023-04-11T11:26:00.442Z,5.90
2023-04-11T11:30:57.017Z,5.40
2023-04-11T11:33:26.424Z,5.78
2023-04-11T11:35:56.060Z,5.95
2023-04-11T11:38:26.001Z,5.75
2023-04-11T11:40:53.865Z,5.78
2023-04-11T11:43:21.370Z,5.90
2023-04-11T11:46:08.473Z,6.40
2023-04-11T11:48:36.274Z,5.70
2023-04-11T11:51:03.830Z,6.03
2023-04-11T11:53:31.273Z,6.40
2023-04-11T11:55:59.365Z,6.55
2023-04-11T11:58:27.365Z,6.70
2023-04-11T12:00:54.807Z,6.68
2023-04-11T12:03:25.381Z,6.65
2023-04-11T12:05:56.876Z,6.03
2023-04-11T12:08:25.206Z,6.50
2023-04-11T12:10:52.877Z,6.28
2023-04-11T12:13:22.280Z,6.47
2023-04-11T12:15:56.765Z,6.72
2023-04-11T12:18:25.191Z,6.50
2023-04-11T12:20:53.043Z,6.97
2023-04-11T12:23:21.055Z,6.57
2023-04-11T12:25:48.525Z,6.70
2023-04-11T12:28:16.421Z,6.95
2023-04-11T12:30:43.782Z,6.85
2023-04-11T12:33:11.117Z,6.50
2023-04-11T12:35:38.474Z,7.05
2023-04-11T12:38:07.781Z,7.45
2023-04-11T12:40:35.296Z,7.13
2023-04-11T12:43:02.767Z,7.05
2023-04-11T12:45:30.106Z,7.22
2023-04-11T12:47:57.448Z,7.22
2023-04-11T12:50:24.797Z,7.43
2023-04-11T12:52:52.319Z,7.00
2023-04-11T12:55:19.760Z,8.30
2023-04-11T12:57:47.100Z,7.65
2023-04-11T13:00:14.917Z,8.20
2023-04-11T13:02:45.035Z,7.63
2023-04-11T13:05:17.361Z,7.20
2023-04-11T13:07:45.635Z,7.45
2023-04-11T13:10:14.119Z,7.57
2023-04-11T13:12:44.237Z,7.78
2023-04-11T13:15:12.060Z,7.88
2023-04-11T13:17:39.692Z,8.00
2023-04-11T13:20:08.006Z,7.97
2023-04-11T13:22:35.381Z,7.80
2023-04-11T13:25:02.933Z,7.88
2023-04-11T13:27:30.576Z,8.23
2023-04-11T13:29:57.995Z,7.80
2023-04-11T13:32:25.339Z,8.15
2023-04-11T13:34:52.726Z,8.15
2023-04-11T13:37:20.049Z,8.45
2023-04-11T13:39:47.401Z,7.90
2023-04-11T13:42:14.757Z,8.63
2023-04-11T13:44:42.103Z,7.95
2023-04-11T13:47:09.505Z,8.77
2023-04-11T13:49:36.855Z,8.73
2023-04-11T13:52:04.203Z,8.70
2023-04-11T13:54:31.641Z,8.15
2023-04-11T13:56:59.570Z,7.90
2023-04-11T13:59:27.759Z,7.90
2023-04-11T14:01:55.094Z,8.30
2023-04-11T14:04:22.621Z,8.90
2023-04-11T14:06:50.131Z,10.50
2023-04-11T14:09:17.690Z,9.15
2023-04-11T14:11:45.098Z,7.95
2023-04-11T14:14:12.474Z,8.13
2023-04-11T14:16:39.909Z,7.43
2023-04-11T14:19:07.268Z,7.93
2023-04-11T14:21:34.543Z,7.65
2023-04-11T14:24:02.334Z,7.95
2023-04-11T14:26:29.592Z,7.95
2023-04-11T14:28:56.904Z,8.20
2023-04-11T14:31:24.369Z,7.43
2023-04-11T14:33:53.713Z,7.95
2023-04-11T14:36:21.123Z,7.80
2023-04-11T14:38:49.596Z,8.00
2023-04-11T14:41:17.773Z,7.68
2023-04-11T14:43:45.089Z,7.10
2023-04-11T14:46:12.449Z,7.15
2023-04-11T14:48:39.881Z,7.00
2023-04-11T14:51:07.376Z,7.05
2023-04-11T14:53:34.668Z,6.72
2023-04-11T14:56:04.646Z,7.07
2023-04-11T14:58:32.002Z,7.00
2023-04-11T15:00:59.320Z,7.15
2023-04-11T15:03:26.890Z,6.35
2023-04-11T15:05:54.473Z,6.43
2023-04-11T15:08:21.949Z,6.57
2023-04-11T15:10:54.032Z,6.22
2023-04-11T15:13:22.453Z,6.35
2023-04-11T15:15:49.906Z,6.45
2023-04-11T15:18:24.282Z,6.32
2023-04-11T15:20:52.621Z,6.65
2023-04-11T15:23:20.610Z,6.68
2023-04-11T15:25:52.568Z,6.65
2023-04-11T15:28:19.958Z,6.22
2023-04-11T15:30:48.327Z,6.13
2023-04-11T15:33:16.224Z,5.88
2023-04-11T15:35:44.012Z,6.25
2023-04-11T15:38:11.625Z,6.47
2023-04-11T15:40:39.135Z,6.78
2023-04-11T15:43:08.516Z,6.97
2023-04-11T15:45:36.661Z,7.20
2023-04-11T15:48:04.122Z,6.85
2023-04-11T15:50:32.146Z,7.78
2023-04-11T15:52:59.747Z,6.95
2023-04-11T15:55:27.124Z,7.20
2023-04-11T15:57:54.548Z,6.57
2023-04-11T16:00:25.290Z,6.65
2023-04-11T16:02:52.849Z,7.20
2023-04-11T16:05:23.308Z,6.70
2023-04-11T16:07:50.709Z,6.43
2023-04-11T16:10:18.087Z,7.13
2023-04-11T16:12:45.694Z,6.43
2023-04-11T16:15:13.141Z,10.55
2023-04-11T16:17:40.611Z,6.60
2023-04-11T16:20:11.945Z,6.68
2023-04-11T16:22:39.636Z,7.47
2023-04-11T16:25:07.342Z,7.10
2023-04-11T16:27:34.767Z,7.35
2023-04-11T16:30:05.152Z,7.50
2023-04-11T16:32:33.120Z,7.57
2023-04-11T16:35:00.974Z,7.35
2023-04-11T16:37:28.465Z,7.63
2023-04-11T16:39:56.553Z,7.57
2023-04-11T16:42:24.140Z,7.32
2023-04-11T16:44:51.544Z,7.90
2023-04-11T16:47:20.449Z,7.90
2023-04-11T16:49:48.279Z,8.50
2023-04-11T16:52:15.611Z,8.88
2023-04-11T16:54:42.926Z,8.05
2023-04-11T16:57:10.406Z,8.20
2023-04-11T16:59:38.154Z,8.02
2023-04-11T17:02:05.883Z,7.90
2023-04-11T17:04:33.533Z,8.75
2023-04-11T17:07:01.115Z,8.88
2023-04-11T17:09:28.459Z,8.02
2023-04-11T17:11:56.603Z,8.75
2023-04-11T17:14:24.606Z,7.88
2023-04-11T17:16:52.078Z,8.75
2023-04-11T17:19:19.365Z,9.38
2023-04-11T17:21:46.679Z,8.32
2023-04-11T17:24:13.962Z,12.20
2023-04-11T17:26:41.312Z,10.02
2023-04-11T17:29:10.941Z,8.70
2023-04-11T17:31:38.580Z,8.82
2023-04-11T17:34:06.009Z,8.80
2023-04-11T17:36:33.460Z,8.35
2023-04-11T17:39:01.066Z,8.38
2023-04-11T17:41:28.538Z,8.43
2023-04-11T17:43:57.129Z,9.20
2023-04-11T17:46:24.702Z,9.32
2023-04-11T17:48:52.010Z,9.32
2023-04-11T17:51:19.315Z,9.25
2023-04-11T17:53:46.885Z,10.30
2023-04-11T17:56:48.139Z,10.45
2023-04-11T17:59:17.302Z,10.18
2023-04-11T18:01:46.625Z,10.18
2023-04-11T18:04:15.035Z,9.93
2023-04-11T18:06:46.065Z,10.15
2023-04-11T18:09:13.517Z,10.85
2023-04-11T18:11:42.065Z,10.50
2023-04-11T18:14:09.769Z,10.57
2023-04-11T18:16:39.036Z,11.20
2023-04-11T18:19:06.426Z,11.38
2023-04-11T18:21:33.856Z,11.75
2023-04-11T18:24:01.300Z,11.50
2023-04-11T18:26:29.178Z,12.48
2023-04-11T18:28:56.580Z,11.60
2023-04-11T18:31:23.989Z,11.40
2023-04-11T18:33:51.647Z,12.75
2023-04-11T18:36:19.456Z,12.82
2023-04-11T18:38:47.725Z,13.10
2023-04-11T18:41:15.394Z,13.00
2023-04-11T18:43:42.928Z,12.73
2023-04-11T18:46:10.343Z,13.55
2023-04-11T18:48:37.809Z,13.38
2023-04-11T18:51:05.897Z,13.23
2023-04-11T18:53:34.884Z,13.57
2023-04-11T18:56:06.104Z,12.82
2023-04-11T18:58:34.795Z,12.73
2023-04-11T19:01:14.904Z,13.90
2023-04-11T19:03:44.944Z,13.60
2023-04-11T19:06:13.109Z,14.13
2023-04-11T19:08:40.834Z,13.50
2023-04-11T19:11:08.249Z,14.15
2023-04-11T19:13:35.780Z,13.45
2023-04-11T19:16:03.305Z,13.68
2023-04-11T19:18:30.906Z,14.52
2023-04-11T19:20:58.265Z,14.20
2023-04-11T19:23:26.363Z,13.73
2023-04-11T19:25:54.796Z,14.55
2023-04-11T19:28:22.514Z,13.95
2023-04-11T19:30:52.648Z,14.70
2023-04-11T19:33:20.161Z,13.95
2023-04-11T19:35:47.668Z,14.38
2023-04-11T19:38:15.240Z,15.18
2023-04-11T19:40:43.074Z,14.50
2023-04-11T19:43:12.127Z,14.82
2023-04-11T19:45:39.676Z,14.30
2023-04-11T19:48:07.809Z,14.57
2023-04-11T19:50:35.895Z,15.40
2023-04-11T19:53:03.417Z,15.27
2023-04-11T19:55:31.689Z,14.70
2023-04-11T19:57:59.249Z,15.95
2023-04-11T20:00:31.800Z,17.27
2023-04-11T20:02:59.290Z,16.90
2023-04-11T20:05:28.164Z,16.95
2023-04-11T20:07:55.547Z,17.48
2023-04-11T20:10:23.006Z,18.42
2023-04-11T20:12:50.529Z,17.63
2023-04-11T20:15:18.792Z,17.77
2023-04-11T20:17:46.996Z,17.90
2023-04-11T20:20:15.351Z,17.63
2023-04-11T20:22:44.893Z,19.25
2023-04-11T20:25:12.440Z,18.65
2023-04-11T20:27:40.333Z,18.63
2023-04-11T20:30:09.911Z,19.35
2023-04-11T20:32:37.654Z,32.13
2023-04-11T20:35:05.415Z,27.17
2023-04-11T20:37:34.527Z,20.45
2023-04-11T20:40:02.206Z,19.40
2023-04-11T20:42:31.612Z,19.30
2023-04-11T20:45:06.019Z,20.23
2023-04-11T20:47:34.138Z,19.40
2023-04-11T20:50:04.189Z,19.23
2023-04-11T20:52:32.693Z,19.17
2023-04-11T20:55:01.117Z,19.52
2023-04-11T20:57:31.573Z,18.83
2023-04-11T20:59:59.112Z,18.80
2023-04-11T21:02:27.908Z,18.60
2023-04-11T21:04:56.313Z,18.02
2023-04-11T21:07:23.847Z,19.27
2023-04-11T21:09:51.766Z,20.88
2023-04-11T21:12:19.176Z,20.75
2023-04-11T21:14:46.473Z,20.42
2023-04-11T21:17:13.857Z,19.20
2023-04-11T21:19:41.211Z,19.50
2023-04-11T21:22:08.624Z,19.42
2023-04-11T21:24:35.942Z,19.38
2023-04-11T21:27:03.350Z,19.65
2023-04-11T21:29:30.721Z,20.77
2023-04-11T21:31:58.067Z,21.58
2023-04-11T21:34:25.395Z,22.30
2023-04-11T21:36:52.812Z,21.42
2023-04-11T21:39:20.133Z,20.27
2023-04-11T21:41:47.445Z,21.90
2023-04-11T21:44:14.784Z,21.88
2023-04-11T21:46:42.162Z,22.00
2023-04-11T21:49:09.640Z,24.67
2023-04-11T21:51:36.926Z,21.80
2023-04-11T21:54:05.313Z,21.70
2023-04-11T21:56:32.666Z,22.45
2023-04-11T21:58:59.994Z,22.13
2023-04-11T22:01:29.035Z,21.90
2023-04-11T22:03:59.447Z,21.60
2023-04-11T22:06:30.314Z,22.38
2023-04-11T22:08:58.318Z,23.15
2023-04-11T22:11:26.731Z,22.73
2023-04-11T22:13:54.080Z,23.92
2023-04-11T22:16:30.224Z,23.50
2023-04-11T22:19:00.906Z,24.45
2023-04-11T22:21:31.949Z,23.73
2023-04-11T22:24:02.304Z,21.50
2023-04-11T22:26:34.187Z,21.63
2023-04-11T22:29:05.155Z,21.30
2023-04-11T22:31:38.335Z,20.80
2023-04-11T22:34:08.240Z,21.10
2023-04-11T22:36:36.009Z,20.07
2023-04-11T22:39:04.948Z,20.07
2023-04-11T22:41:33.240Z,19.40
2023-04-11T22:44:01.109Z,19.13
2023-04-11T22:46:31.956Z,19.53
2023-04-11T22:48:59.296Z,19.03
2023-04-11T22:51:30.238Z,18.00
2023-04-11T22:53:58.068Z,19.40
2023-04-11T22:56:25.744Z,19.17
2023-04-11T22:58:53.283Z,18.87
2023-04-11T23:01:20.829Z,19.37
2023-04-11T23:03:49.220Z,18.80
2023-04-11T23:06:17.289Z,18.50
2023-04-11T23:08:44.639Z,18.63
2023-04-11T23:11:12.717Z,19.17
2023-04-11T23:13:40.048Z,18.57
2023-04-11T23:16:09.191Z,17.90
2023-04-11T23:18:36.676Z,19.20
2023-04-11T23:21:04.113Z,19.20
2023-04-11T23:23:31.388Z,19.77
2023-04-11T23:26:00.051Z,22.27
2023-04-11T23:28:27.413Z,21.97
2023-04-11T23:30:55.686Z,22.53
2023-04-11T23:33:25.690Z,24.23
2023-04-11T23:35:53.218Z,23.33
2023-04-11T23:38:21.466Z,24.13
2023-04-11T23:40:49.375Z,23.63
2023-04-11T23:43:16.967Z,24.63
2023-04-11T23:45:44.346Z,25.10
2023-04-11T23:48:11.713Z,26.23
2023-04-11T23:50:39.470Z,24.47
2023-04-11T23:53:06.756Z,25.67
2023-04-11T23:55:34.079Z,25.43
2023-04-11T23:58:01.461Z,25.57
